Time;durP1;ratioP1;P1;durP2;ratioP2;P2;SDS_P1;SDS_P2;PMS_P1;PMS_P2;Temp;Humidity;BMP_temperature;BMP_pressure;BME280_temperature;BME280_humidity;BME280_pressure;Samples;Min_cycle;Max_cycle;Signal;HPM_P1;HPM_P2
2022/02/12 00:00:20;;;;;;;;;;;;;;;;;;5092441;28;20006;-76
2022/02/12 00:02:46;;;;;;;;;;;;;;;;;;5092342;28;19922;-76
2022/02/12 00:05:11;;;;;;;;;;;;;;;;;;5093399;28;19920;-76
2022/02/12 00:07:37;;;;;;;;;;;;;;;;;;5092190;28;19917;-76
2022/02/12 00:10:03;;;;;;;;;;;;;;;;;;5093492;28;19955;-76
2022/02/12 00:12:28;;;;;;;;;;;;;;;;;;5093403;28;19916;-76
2022/02/12 00:14:56;;;;;;;;;;;;;;;;;;5091463;28;19923;-76
2022/02/12 00:17:22;;;;;;;;;;;;;;;;;;5093210;28;20390;-76
2022/02/12 00:19:48;;;;;;;;;;;;;;;;;;5093259;28;19916;-77
2022/02/12 00:22:13;;;;;;;;;;;;;;;;;;5093230;28;19916;-76
2022/02/12 00:24:38;;;;;;;;;;;;;;;;;;5093133;28;19931;-76
2022/02/12 00:27:04;;;;;;;;;;;;;;;;;;5092834;28;19927;-76
2022/02/12 00:29:29;;;;;;;;;;;;;;;;;;5093014;28;19924;-76
2022/02/12 00:31:54;;;;;;;;;;;;;;;;;;5092732;28;19917;-75
2022/02/12 00:34:20;;;;;;;;;;;;;;;;;;5094059;28;19923;-76
2022/02/12 00:36:45;;;;;;;;;;;;;;;;;;5096753;28;19923;-76
2022/02/12 00:39:13;;;;;;;;;;;;;;;;;;5096808;28;19942;-76
2022/02/12 00:41:38;;;;;;;;;;;;;;;;;;5096305;28;19931;-76
2022/02/12 00:44:04;;;;;;;;;;;;;;;;;;5096626;28;20338;-76
2022/02/12 00:46:29;;;;;;;;;;;;;;;;;;5095772;28;20290;-77
2022/02/12 00:48:54;;;;;;;;;;;;;;;;;;5096195;28;19916;-76
2022/02/12 00:51:21;;;;;;;;;;;;;;;;;;5095264;28;19924;-76
2022/02/12 00:53:47;;;;;;;;;;;;;;;;;;5096425;28;20065;-77
2022/02/12 00:56:13;;;;;;;;;;;;;;;;;;5095424;28;19916;-76
2022/02/12 00:58:39;;;;;;;;;;;;;;;;;;5095482;28;19916;-76
2022/02/12 01:01:04;;;;;;;;;;;;;;;;;;5096052;28;19923;-76
2022/02/12 01:03:30;;;;;;;;;;;;;;;;;;5095409;28;20280;-76
2022/02/12 01:05:57;;;;;;;;;;;;;;;;;;5095507;28;19938;-76
2022/02/12 01:08:23;;;;;;;;;;;;;;;;;;5094862;28;19927;-76
2022/02/12 01:10:48;;;;;;;;;;;;;;;;;;5095934;28;19915;-77
2022/02/12 01:13:14;;;;;;;;;;;;;;;;;;5096046;28;19920;-77
2022/02/12 01:15:39;;;;;;;;;;;;;;;;;;5096532;28;19916;-77
2022/02/12 01:18:04;;;;;;;;;;;;;;;;;;5096248;28;20427;-76
2022/02/12 01:20:30;;;;;;;;;;;;;;;;;;5096023;28;19916;-76
2022/02/12 01:22:55;;;;;;;;;;;;;;;;;;5095999;28;20265;-76
2022/02/12 01:25:21;;;;;;;;;;;;;;;;;;5094540;28;19986;-76
2022/02/12 01:27:47;;;;;;;;;;;;;;;;;;5095737;28;19966;-76
2022/02/12 01:30:12;;;;;;;;;;;;;;;;;;5094645;28;19916;-77
2022/02/12 01:32:38;;;;;;;;;;;;;;;;;;5094285;28;19970;-77
2022/02/12 01:35:04;;;;;;;;;;;;;;;;;;5095757;28;19995;-76
2022/02/12 01:37:29;;;;;;;;;;;;;;;;;;5095575;28;19916;-77
2022/02/12 01:39:57;;;;;;;;;;;;;;;;;;5094408;28;19919;-77
2022/02/12 01:42:23;;;;;;;;;;;;;;;;;;5095615;28;20348;-77
2022/02/12 01:44:48;;;;;;;;;;;;;;;;;;5093769;28;19916;-76
2022/02/12 01:47:14;;;;;;;;;;;;;;;;;;5094333;28;19924;-77
2022/02/12 01:49:40;;;;;;;;;;;;;;;;;;5095361;28;19935;-76
2022/02/12 01:52:07;;;;;;;;;;;;;;;;;;5095781;28;19916;-77
2022/02/12 01:54:32;;;;;;;;;;;;;;;;;;5095372;28;20389;-76
2022/02/12 01:56:59;;;;;;;;;;;;;;;;;;5094313;28;19930;-77
2022/02/12 01:59:24;;;;;;;;;;;;;;;;;;5095479;28;19979;-76
2022/02/12 02:01:52;;;;;;;;;;;;;;;;;;5092379;28;22311;-76
2022/02/12 02:04:17;;;;;;;;;;;;;;;;;;5095177;28;19915;-77
2022/02/12 02:06:43;;;;;;;;;;;;;;;;;;5095063;28;20266;-76
2022/02/12 02:09:09;;;;;;;;;;;;;;;;;;5095384;28;19969;-76
2022/02/12 02:11:36;;;;;;;;;;;;;;;;;;5093863;28;20025;-76
2022/02/12 02:14:02;;;;;;;;;;;;;;;;;;5094592;28;20014;-76
2022/02/12 02:16:28;;;;;;;;;;;;;;;;;;5094889;28;19951;-77
2022/02/12 02:18:53;;;;;;;;;;;;;;;;;;5094705;28;20278;-77
2022/02/12 02:21:19;;;;;;;;;;;;;;;;;;5094794;28;19916;-77
2022/02/12 02:23:44;;;;;;;;;;;;;;;;;;5094981;28;19947;-76
2022/02/12 02:26:11;;;;;;;;;;;;;;;;;;5094601;28;19920;-76
2022/02/12 02:28:37;;;;;;;;;;;;;;;;;;5094823;28;20440;-76
2022/02/12 02:31:02;;;;;;;;;;;;;;;;;;5094033;28;19916;-76
2022/02/12 02:33:28;;;;;;;;;;;;;;;;;;5093464;28;19939;-76
2022/02/12 02:35:54;;;;;;;;;;;;;;;;;;5094312;28;20297;-76
2022/02/12 02:38:19;;;;;;;;;;;;;;;;;;5094374;28;20014;-76
2022/02/12 02:40:46;;;;;;;;;;;;;;;;;;5094569;28;19916;-76
2022/02/12 02:43:11;;;;;;;;;;;;;;;;;;5093836;28;19920;-76
2022/02/12 02:45:37;;;;;;;;;;;;;;;;;;5094215;28;19923;-76
2022/02/12 02:48:04;;;;;;;;;;;;;;;;;;5093907;28;19927;-76
2022/02/12 02:56:00;;;;;;;;;;;;;;;;;;5093760;28;19927;-77
2022/02/12 02:58:30;;;;;;;;;;;;;;;;;;5093500;28;20293;-77
2022/02/12 03:00:55;;;;;;;;;;;;;;;;;;5092884;28;19916;-77
2022/02/12 03:03:22;;;;;;;;;;;;;;;;;;5092833;28;20019;-77
2022/02/12 03:05:47;;;;;;;;;;;;;;;;;;5093269;28;19959;-77
2022/02/12 03:08:12;;;;;;;;;;;;;;;;;;5093949;28;20356;-77
2022/02/12 03:10:38;;;;;;;;;;;;;;;;;;5093939;28;19916;-77
2022/02/12 03:13:03;;;;;;;;;;;;;;;;;;5092813;28;20285;-77
2022/02/12 03:15:28;;;;;;;;;;;;;;;;;;5093334;28;20370;-77
2022/02/12 03:17:54;;;;;;;;;;;;;;;;;;5093805;28;19998;-76
2022/02/12 03:20:19;;;;;;;;;;;;;;;;;;5093691;28;19938;-76
2022/02/12 03:22:45;;;;;;;;;;;;;;;;;;5093879;28;20476;-76
2022/02/12 03:25:10;;;;;;;;;;;;;;;;;;5093509;28;20399;-76
2022/02/12 03:27:35;;;;;;;;;;;;;;;;;;5093865;28;19920;-77
2022/02/12 03:30:00;;;;;;;;;;;;;;;;;;5091748;28;19920;-77
2022/02/12 03:32:26;;;;;;;;;;;;;;;;;;5093773;28;19923;-77
2022/02/12 03:34:51;;;;;;;;;;;;;;;;;;5093469;28;20005;-76
2022/02/12 03:37:17;;;;;;;;;;;;;;;;;;5092816;28;19993;-76
2022/02/12 03:39:42;;;;;;;;;;;;;;;;;;5093706;28;20278;-76
2022/02/12 03:42:08;;;;;;;;;;;;;;;;;;5092331;28;19962;-76
2022/02/12 03:44:33;;;;;;;;;;;;;;;;;;5093641;28;19916;-76
2022/02/12 03:46:58;;;;;;;;;;;;;;;;;;5093582;28;19926;-76
2022/02/12 03:49:24;;;;;;;;;;;;;;;;;;5092952;28;19959;-76
2022/02/12 03:51:49;;;;;;;;;;;;;;;;;;5093658;28;20007;-77
2022/02/12 03:54:15;;;;;;;;;;;;;;;;;;5093417;28;19920;-77
2022/02/12 03:56:40;;;;;;;;;;;;;;;;;;5093214;28;19916;-76
2022/02/12 03:59:06;;;;;;;;;;;;;;;;;;5093912;28;20278;-76
2022/02/12 04:01:31;;;;;;;;;;;;;;;;;;5093014;28;19973;-76
2022/02/12 04:03:56;;;;;;;;;;;;;;;;;;5092297;28;19927;-76
2022/02/12 04:06:22;;;;;;;;;;;;;;;;;;5092572;28;19916;-76
2022/02/12 04:08:47;;;;;;;;;;;;;;;;;;5094970;28;19971;-76
2022/02/12 04:11:12;;;;;;;;;;;;;;;;;;5097400;28;19923;-77
2022/02/12 04:13:38;;;;;;;;;;;;;;;;;;5097278;28;19923;-76
2022/02/12 04:16:04;;;;;;;;;;;;;;;;;;5097208;28;19916;-77
2022/02/12 04:18:29;;;;;;;;;;;;;;;;;;5095853;28;19916;-76
2022/02/12 04:20:55;;;;;;;;;;;;;;;;;;5096953;28;19931;-77
2022/02/12 04:23:21;;;;;;;;;;;;;;;;;;5097020;28;19919;-77
2022/02/12 04:25:46;;;;;;;;;;;;;;;;;;5097055;28;20310;-77
2022/02/12 04:28:12;;;;;;;;;;;;;;;;;;5095240;28;20019;-76
2022/02/12 04:30:38;;;;;;;;;;;;;;;;;;5096876;28;20316;-77
2022/02/12 04:33:03;;;;;;;;;;;;;;;;;;5096869;28;19916;-77
2022/02/12 04:35:29;;;;;;;;;;;;;;;;;;5096622;28;20338;-77
2022/02/12 04:37:54;;;;;;;;;;;;;;;;;;5096801;28;19963;-77
2022/02/12 04:40:20;;;;;;;;;;;;;;;;;;5096852;28;19916;-76
2022/02/12 04:42:45;;;;;;;;;;;;;;;;;;5096910;28;19962;-77
2022/02/12 04:45:11;;;;;;;;;;;;;;;;;;5095768;28;19959;-76
2022/02/12 04:47:37;;;;;;;;;;;;;;;;;;5096485;28;19927;-76
2022/02/12 04:50:03;;;;;;;;;;;;;;;;;;5096680;28;20318;-77
2022/02/12 04:52:29;;;;;;;;;;;;;;;;;;5096506;28;19916;-77
2022/02/12 04:54:56;;;;;;;;;;;;;;;;;;5096479;28;19923;-76
2022/02/12 04:57:21;;;;;;;;;;;;;;;;;;5096145;28;19920;-77
2022/02/12 04:59:47;;;;;;;;;;;;;;;;;;5096386;28;19916;-76
2022/02/12 05:02:12;;;;;;;;;;;;;;;;;;5095341;28;19976;-76
2022/02/12 05:04:38;;;;;;;;;;;;;;;;;;5096597;28;19924;-77
2022/02/12 05:07:03;;;;;;;;;;;;;;;;;;5094689;28;19923;-77
2022/02/12 05:09:31;;;;;;;;;;;;;;;;;;5096220;28;20297;-76
2022/02/12 05:11:56;;;;;;;;;;;;;;;;;;5096008;28;20026;-77
2022/02/12 05:14:21;;;;;;;;;;;;;;;;;;5096086;28;20357;-77
2022/02/12 05:16:47;;;;;;;;;;;;;;;;;;5096169;28;20305;-77
2022/02/12 05:19:14;;;;;;;;;;;;;;;;;;5095682;28;19923;-77
2022/02/12 05:21:40;;;;;;;;;;;;;;;;;;5094370;28;19923;-76
2022/02/12 05:24:07;;;;;;;;;;;;;;;;;;5077762;28;19916;-77
2022/02/12 05:26:32;;;;;;;;;;;;;;;;;;5096014;28;19927;-77
2022/02/12 05:28:57;;;;;;;;;;;;;;;;;;5095971;28;19916;-77
2022/02/12 05:31:23;;;;;;;;;;;;;;;;;;5094911;28;19916;-77
2022/02/12 05:33:48;;;;;;;;;;;;;;;;;;5096437;28;20263;-77
2022/02/12 05:36:13;;;;;;;;;;;;;;;;;;5096124;28;19935;-77
2022/02/12 05:38:40;;;;;;;;;;;;;;;;;;5094842;28;20011;-77
2022/02/12 05:41:09;;;;;;;;;;;;;;;;;;5095585;28;19961;-77
2022/02/12 05:43:34;;;;;;;;;;;;;;;;;;5096048;28;19962;-77
2022/02/12 05:46:00;;;;;;;;;;;;;;;;;;5095355;28;19994;-76
2022/02/12 05:48:26;;;;;;;;;;;;;;;;;;5095655;28;19959;-77
2022/02/12 05:50:51;;;;;;;;;;;;;;;;;;5094807;28;20474;-77
2022/02/12 05:53:16;;;;;;;;;;;;;;;;;;5093394;28;20435;-77
2022/02/12 05:55:42;;;;;;;;;;;;;;;;;;5094620;28;19916;-77
2022/02/12 05:58:07;;;;;;;;;;;;;;;;;;5093601;28;19920;-77
2022/02/12 06:00:32;;;;;;;;;;;;;;;;;;5094813;28;20011;-77
2022/02/12 06:02:58;;;;;;;;;;;;;;;;;;5096718;28;19920;-77
2022/02/12 06:05:23;;;;;;;;;;;;;;;;;;5093583;28;20012;-77
2022/02/12 06:07:49;;;;;;;;;;;;;;;;;;5096656;28;20354;-76
2022/02/12 06:10:14;;;;;;;;;;;;;;;;;;5095523;28;19920;-78
2022/02/12 06:12:39;;;;;;;;;;;;;;;;;;5097033;28;19920;-78
2022/02/12 06:15:05;;;;;;;;;;;;;;;;;;5096972;28;19916;-78
2022/02/12 06:17:30;;;;;;;;;;;;;;;;;;5094900;28;19916;-77
2022/02/12 06:19:56;;;;;;;;;;;;;;;;;;5094737;28;19962;-78
2022/02/12 06:22:24;;;;;;;;;;;;;;;;;;5096717;28;19927;-78
2022/02/12 06:24:49;;;;;;;;;;;;;;;;;;5078719;28;19916;-76
2022/02/12 06:27:14;;;;;;;;;;;;;;;;;;5095562;28;19920;-77
2022/02/12 06:29:39;;;;;;;;;;;;;;;;;;5093888;28;20362;-77
2022/02/12 06:32:05;;;;;;;;;;;;;;;;;;5093991;28;19924;-77
2022/02/12 06:34:30;;;;;;;;;;;;;;;;;;5093520;28;19923;-76
2022/02/12 06:36:55;;;;;;;;;;;;;;;;;;5094885;28;19916;-77
2022/02/12 06:39:21;;;;;;;;;;;;;;;;;;5093347;28;19955;-77
2022/02/12 06:41:46;;;;;;;;;;;;;;;;;;5093448;28;19927;-75
2022/02/12 06:44:11;;;;;;;;;;;;;;;;;;5094977;28;19924;-77
2022/02/12 06:46:37;;;;;;;;;;;;;;;;;;5094600;28;19954;-76
2022/02/12 06:49:02;;;;;;;;;;;;;;;;;;5094589;28;19922;-77
2022/02/12 06:51:27;;;;;;;;;;;;;;;;;;5094649;28;20435;-76
2022/02/12 06:53:53;;;;;;;;;;;;;;;;;;5094654;28;19916;-79
2022/02/12 06:56:18;;;;;;;;;;;;;;;;;;5095523;28;20362;-77
2022/02/12 06:58:43;;;;;;;;;;;;;;;;;;5095215;28;20023;-77
2022/02/12 07:01:08;;;;;;;;;;;;;;;;;;5095497;28;19920;-76
2022/02/12 07:03:34;;;;;;;;;;;;;;;;;;5095549;28;19969;-78
2022/02/12 07:05:59;;;;;;;;;;;;;;;;;;5095226;28;19916;-78
2022/02/12 07:08:25;;;;;;;;;;;;;;;;;;5093740;28;19920;-77
2022/02/12 07:10:50;;;;;;;;;;;;;;;;;;5094661;28;19916;-77
2022/02/12 07:13:15;;;;;;;;;;;;;;;;;;5094924;28;19923;-78
2022/02/12 07:15:40;;;;;;;;;;;;;;;;;;5092387;28;20344;-77
2022/02/12 07:18:06;;;;;;;;;;;;;;;;;;5092309;28;19977;-77
2022/02/12 07:20:31;;;;;;;;;;;;;;;;;;5090931;28;19926;-77
2022/02/12 07:22:57;;;;;;;;;;;;;;;;;;5095039;28;19943;-77
2022/02/12 07:25:22;;;;;;;;;;;;;;;;;;5094141;28;20346;-78
2022/02/12 07:27:47;;;;;;;;;;;;;;;;;;5097255;28;20010;-79
2022/02/12 07:30:14;;;;;;;;;;;;;;;;;;5099927;28;19977;-79
2022/02/12 07:32:40;;;;;;;;;;;;;;;;;;5100119;28;19961;-78
2022/02/12 07:35:06;;;;;;;;;;;;;;;;;;5099279;28;20015;-78
2022/02/12 07:37:32;;;;;;;;;;;;;;;;;;5094107;28;20396;-77
2022/02/12 07:39:58;;;;;;;;;;;;;;;;;;5098761;28;19920;-80
2022/02/12 07:42:24;;;;;;;;;;;;;;;;;;5103448;28;19916;-78
2022/02/12 07:44:49;;;;;;;;;;;;;;;;;;5107910;28;19951;-79
2022/02/12 07:47:15;;;;;;;;;;;;;;;;;;5108299;28;19927;-79
2022/02/12 07:49:40;;;;;;;;;;;;;;;;;;5107886;28;19924;-79
2022/02/12 07:52:06;;;;;;;;;;;;;;;;;;5107543;28;19916;-79
2022/02/12 07:54:31;;;;;;;;;;;;;;;;;;5108864;28;19991;-79
2022/02/12 07:56:57;;;;;;;;;;;;;;;;;;5108960;28;19978;-80
2022/02/12 07:59:23;;;;;;;;;;;;;;;;;;5110180;28;19955;-80
2022/02/12 08:01:49;;;;;;;;;;;;;;;;;;5108354;28;19962;-79
2022/02/12 08:04:14;;;;;;;;;;;;;;;;;;5092136;28;19916;-80
2022/02/12 08:09:26;;;;;;;;;;;;;;;;;;5109391;28;20263;-79
2022/02/12 08:12:06;;;;;;;;;;;;;;;;;;5108118;28;19959;-79
2022/02/12 08:14:32;;;;;;;;;;;;;;;;;;5089603;28;19923;-78
2022/02/12 08:16:57;;;;;;;;;;;;;;;;;;5108810;28;19920;-79
2022/02/12 08:19:24;;;;;;;;;;;;;;;;;;5109317;28;19940;-79
2022/02/12 08:21:51;;;;;;;;;;;;;;;;;;5108868;28;20285;-79
2022/02/12 08:24:16;;;;;;;;;;;;;;;;;;5108662;28;19923;-79
2022/02/12 08:26:41;;;;;;;;;;;;;;;;;;5109574;28;19920;-79
2022/02/12 08:29:07;;;;;;;;;;;;;;;;;;5109296;28;19912;-79
2022/02/12 08:31:32;;;;;;;;;;;;;;;;;;5108345;28;19916;-79
2022/02/12 08:33:57;;;;;;;;;;;;;;;;;;5109985;28;19920;-79
2022/02/12 08:36:23;;;;;;;;;;;;;;;;;;5110344;28;19919;-79
2022/02/12 08:38:48;;;;;;;;;;;;;;;;;;5109382;28;19942;-79
2022/02/12 08:41:13;;;;;;;;;;;;;;;;;;5109737;28;19916;-79
2022/02/12 08:43:38;;;;;;;;;;;;;;;;;;5110003;28;19917;-79
2022/02/12 08:46:04;;;;;;;;;;;;;;;;;;5110103;28;19916;-78
2022/02/12 08:48:31;;;;;;;;;;;;;;;;;;5109577;28;19985;-79
2022/02/12 08:50:56;;;;;;;;;;;;;;;;;;5110374;28;19920;-78
2022/02/12 08:53:21;;;;;;;;;;;;;;;;;;5110750;28;19973;-78
2022/02/12 08:55:47;;;;;;;;;;;;;;;;;;5110513;28;19927;-78
2022/02/12 08:58:12;;;;;;;;;;;;;;;;;;5110285;28;19969;-78
2022/02/12 09:00:38;;;;;;;;;;;;;;;;;;5106510;28;19916;-78
2022/02/12 09:03:03;;;;;;;;;;;;;;;;;;5104202;28;19916;-78
2022/02/12 09:05:28;;;;;;;;;;;;;;;;;;5105463;28;19923;-78
2022/02/12 09:07:54;;;;;;;;;;;;;;;;;;5105313;28;20009;-78
2022/02/12 09:10:19;;;;;;;;;;;;;;;;;;5106745;28;19955;-78
2022/02/12 09:12:44;;;;;;;;;;;;;;;;;;5105716;28;19920;-78
2022/02/12 09:15:10;;;;;;;;;;;;;;;;;;5105724;28;19917;-78
2022/02/12 09:17:35;;;;;;;;;;;;;;;;;;5106241;28;19938;-79
2022/02/12 09:20:00;;;;;;;;;;;;;;;;;;5106912;28;19916;-78
2022/02/12 09:22:26;;;;;;;;;;;;;;;;;;5107122;28;19966;-78
2022/02/12 09:24:51;;;;;;;;;;;;;;;;;;5108305;28;19924;-78
2022/02/12 09:27:17;;;;;;;;;;;;;;;;;;5091238;28;19927;-78
2022/02/12 09:29:43;;;;;;;;;;;;;;;;;;5108429;28;19916;-78
2022/02/12 09:32:08;;;;;;;;;;;;;;;;;;5108831;28;19947;-79
2022/02/12 09:34:33;;;;;;;;;;;;;;;;;;5108509;28;19916;-78
2022/02/12 09:36:59;;;;;;;;;;;;;;;;;;5107511;28;19923;-78
2022/02/12 09:39:24;;;;;;;;;;;;;;;;;;5107470;28;19916;-78
2022/02/12 09:41:49;;;;;;;;;;;;;;;;;;5107797;28;19934;-79
2022/02/12 09:44:15;;;;;;;;;;;;;;;;;;5109047;28;19916;-78
2022/02/12 09:46:43;;;;;;;;;;;;;;;;;;5107366;28;19916;-78
2022/02/12 09:49:09;;;;;;;;;;;;;;;;;;5106266;28;20007;-79
2022/02/12 09:51:37;;;;;;;;;;;;;;;;;;5107079;28;19962;-78
2022/02/12 09:54:02;;;;;;;;;;;;;;;;;;5106697;28;19919;-78
2022/02/12 09:56:27;;;;;;;;;;;;;;;;;;5106747;28;19916;-79
2022/02/12 09:58:53;;;;;;;;;;;;;;;;;;5107210;28;19920;-79
2022/02/12 10:01:19;;;;;;;;;;;;;;;;;;5107537;28;19916;-78
2022/02/12 10:03:45;;;;;;;;;;;;;;;;;;5107937;28;20019;-79
2022/02/12 10:06:11;;;;;;;;;;;;;;;;;;5105316;28;20354;-79
2022/02/12 10:08:37;;;;;;;;;;;;;;;;;;5106947;28;19963;-78
2022/02/12 10:11:13;;;;;;;;;;;;;;;;;;5107923;28;19923;-79
2022/02/12 10:13:39;;;;;;;;;;;;;;;;;;5108290;28;19916;-79
2022/02/12 10:16:05;;;;;;;;;;;;;;;;;;5108311;28;19940;-79
2022/02/12 10:18:32;;;;;;;;;;;;;;;;;;5107928;28;19967;-79
2022/02/12 10:20:58;;;;;;;;;;;;;;;;;;5106866;28;19920;-79
2022/02/12 10:23:34;;;;;;;;;;;;;;;;;;5095725;28;19916;-78
2022/02/12 10:26:02;;;;;;;;;;;;;;;;;;5089865;28;19916;-77
2022/02/12 10:28:28;;;;;;;;;;;;;;;;;;5101236;28;19920;-78
2022/02/12 10:30:55;;;;;;;;;;;;;;;;;;5099151;28;19916;-80
2022/02/12 10:33:20;;;;;;;;;;;;;;;;;;5101008;28;20028;-77
2022/02/12 10:35:54;;;;;;;;;;;;;;;;;;5097361;28;19959;-78
2022/02/12 10:38:20;;;;;;;;;;;;;;;;;;5097892;28;20316;-78
2022/02/12 10:41:02;;;;;;;;;;;;;;;;;;5099259;28;19938;-78
2022/02/12 10:43:28;;;;;;;;;;;;;;;;;;5099779;28;19920;-77
2022/02/12 10:45:53;;;;;;;;;;;;;;;;;;5099264;28;19965;-78
2022/02/12 10:48:19;;;;;;;;;;;;;;;;;;5100778;28;20275;-78
2022/02/12 10:50:44;;;;;;;;;;;;;;;;;;5100469;28;19927;-77
2022/02/12 10:53:09;;;;;;;;;;;;;;;;;;5101443;28;19916;-78
2022/02/12 10:55:37;;;;;;;;;;;;;;;;;;5099987;28;19923;-78
2022/02/12 10:58:07;;;;;;;;;;;;;;;;;;5101295;28;19920;-78
2022/02/12 11:00:33;;;;;;;;;;;;;;;;;;5100628;28;19920;-77
2022/02/12 11:03:00;;;;;;;;;;;;;;;;;;5101933;28;20400;-77
2022/02/12 11:05:26;;;;;;;;;;;;;;;;;;5102321;28;19912;-78
2022/02/12 11:07:52;;;;;;;;;;;;;;;;;;5101755;28;20037;-77
2022/02/12 11:10:18;;;;;;;;;;;;;;;;;;5103082;28;19923;-77
2022/02/12 11:12:44;;;;;;;;;;;;;;;;;;5104317;28;19963;-78
2022/02/12 11:15:10;;;;;;;;;;;;;;;;;;5102781;28;19970;-77
2022/02/12 11:17:36;;;;;;;;;;;;;;;;;;5102781;28;19938;-77
2022/02/12 11:20:02;;;;;;;;;;;;;;;;;;5101103;28;19916;-78
2022/02/12 11:22:28;;;;;;;;;;;;;;;;;;5101950;28;19916;-78
2022/02/12 11:24:54;;;;;;;;;;;;;;;;;;5102577;28;19924;-78
2022/02/12 11:27:23;;;;;;;;;;;;;;;;;;5102370;28;19942;-78
2022/02/12 11:29:52;;;;;;;;;;;;;;;;;;5104457;28;19916;-78
2022/02/12 11:32:25;;;;;;;;;;;;;;;;;;5086198;28;19916;-78
2022/02/12 11:35:10;;;;;;;;;;;;;;;;;;5083592;28;19917;-78
2022/02/12 11:37:38;;;;;;;;;;;;;;;;;;5078136;28;19969;-77
2022/02/12 11:40:23;;;;;;;;;;;;;;;;;;5079499;28;19924;-78
2022/02/12 11:42:54;;;;;;;;;;;;;;;;;;5079494;28;19913;-77
2022/02/12 11:45:46;;;;;;;;;;;;;;;;;;5077168;28;19931;-77
2022/02/12 11:48:26;;;;;;;;;;;;;;;;;;5073221;28;19924;-78
2022/02/12 11:50:55;;;;;;;;;;;;;;;;;;5074949;28;20024;-77
2022/02/12 11:53:39;;;;;;;;;;;;;;;;;;5075181;28;19924;-77
2022/02/12 11:56:27;;;;;;;;;;;;;;;;;;5075697;28;19917;-77
2022/02/12 11:58:56;;;;;;;;;;;;;;;;;;5075301;28;19916;-78
2022/02/12 12:01:21;;;;;;;;;;;;;;;;;;5085523;28;20046;-77
2022/02/12 12:04:01;;;;;;;;;;;;;;;;;;5096076;28;19989;-78
2022/02/12 12:06:27;;;;;;;;;;;;;;;;;;5097067;28;19937;-79
2022/02/12 12:09:08;;;;;;;;;;;;;;;;;;5095088;28;19965;-78
2022/02/12 12:11:34;;;;;;;;;;;;;;;;;;5096212;28;19923;-78
2022/02/12 12:14:18;;;;;;;;;;;;;;;;;;5094865;28;20366;-77
2022/02/12 12:17:02;;;;;;;;;;;;;;;;;;5096625;28;19916;-83
2022/02/12 12:19:28;;;;;;;;;;;;;;;;;;5097240;28;19920;-81
2022/02/12 12:21:57;;;;;;;;;;;;;;;;;;5097962;28;20009;-77
2022/02/12 12:24:22;;;;;;;;;;;;;;;;;;5075041;28;19920;-75
2022/02/12 12:26:49;;;;;;;;;;;;;;;;;;5093024;28;19923;-75
2022/02/12 12:32:22;;;;;;;;;;;;;;;;;;5098405;28;19916;-77
2022/02/12 12:35:00;;;;;;;;;;;;;;;;;;5089732;28;19916;-77
2022/02/12 12:37:27;;;;;;;;;;;;;;;;;;5099654;28;19938;-77
2022/02/12 12:39:54;;;;;;;;;;;;;;;;;;5104710;28;20358;-80
2022/02/12 12:42:21;;;;;;;;;;;;;;;;;;5103787;28;19962;-76
2022/02/12 12:45:11;;;;;;;;;;;;;;;;;;5097469;28;19956;-76
2022/02/12 12:47:37;;;;;;;;;;;;;;;;;;5098131;28;19915;-76
2022/02/12 12:50:03;;;;;;;;;;;;;;;;;;5092874;28;20465;-76
2022/02/12 12:52:31;;;;;;;;;;;;;;;;;;5078499;28;19923;-76
2022/02/12 12:55:13;;;;;;;;;;;;;;;;;;5083208;28;19969;-79
2022/02/12 12:57:43;;;;;;;;;;;;;;;;;;5083815;28;19943;-80
2022/02/12 13:00:13;;;;;;;;;;;;;;;;;;5083092;28;19963;-80
2022/02/12 13:02:52;;;;;;;;;;;;;;;;;;5096283;28;19919;-79
2022/02/12 13:05:21;;;;;;;;;;;;;;;;;;5124352;28;19920;-80
2022/02/12 13:07:47;;;;;;;;;;;;;;;;;;5123649;28;19920;-79
2022/02/12 13:10:12;;;;;;;;;;;;;;;;;;5123716;28;19922;-79
2022/02/12 13:12:38;;;;;;;;;;;;;;;;;;5124214;28;20274;-78
2022/02/12 13:15:04;;;;;;;;;;;;;;;;;;5123418;28;19915;-78
2022/02/12 13:17:30;;;;;;;;;;;;;;;;;;5124443;28;19922;-78
2022/02/12 13:20:02;;;;;;;;;;;;;;;;;;5122484;28;20345;-81
2022/02/12 13:22:31;;;;;;;;;;;;;;;;;;5123317;28;19920;-77
2022/02/12 13:24:56;;;;;;;;;;;;;;;;;;5121243;28;19968;-77
2022/02/12 13:27:23;;;;;;;;;;;;;;;;;;5119153;28;20010;-77
2022/02/12 13:29:49;;;;;;;;;;;;;;;;;;5118431;28;19916;-78
2022/02/12 13:32:15;;;;;;;;;;;;;;;;;;5113231;28;20404;-77
2022/02/12 13:34:46;;;;;;;;;;;;;;;;;;5096424;28;19916;-77
2022/02/12 13:37:12;;;;;;;;;;;;;;;;;;5097327;28;19956;-78
2022/02/12 13:39:37;;;;;;;;;;;;;;;;;;5095879;28;19969;-79
2022/02/12 13:42:05;;;;;;;;;;;;;;;;;;5096180;28;20377;-78
2022/02/12 13:44:32;;;;;;;;;;;;;;;;;;5096447;28;20335;-78
2022/02/12 13:47:02;;;;;;;;;;;;;;;;;;5099253;28;19928;-77
2022/02/12 13:49:29;;;;;;;;;;;;;;;;;;5095606;28;20007;-78
2022/02/12 13:51:59;;;;;;;;;;;;;;;;;;5096934;28;20354;-77
2022/02/12 13:54:25;;;;;;;;;;;;;;;;;;5097824;28;19916;-78
2022/02/12 13:56:52;;;;;;;;;;;;;;;;;;5096948;28;19923;-78
2022/02/12 13:59:21;;;;;;;;;;;;;;;;;;5099317;28;19916;-80
2022/02/12 14:01:47;;;;;;;;;;;;;;;;;;5100110;28;20014;-79
2022/02/12 14:04:13;;;;;;;;;;;;;;;;;;5079858;28;19960;-79
2022/02/12 14:06:38;;;;;;;;;;;;;;;;;;5078098;28;19924;-79
2022/02/12 14:09:04;;;;;;;;;;;;;;;;;;5079223;28;19951;-79
2022/02/12 14:11:29;;;;;;;;;;;;;;;;;;5078711;28;20374;-79
2022/02/12 14:13:55;;;;;;;;;;;;;;;;;;5078645;28;20358;-79
2022/02/12 14:16:20;;;;;;;;;;;;;;;;;;5078404;28;20020;-79
2022/02/12 14:18:46;;;;;;;;;;;;;;;;;;5079163;28;19917;-79
2022/02/12 14:21:12;;;;;;;;;;;;;;;;;;5075634;28;19969;-79
2022/02/12 14:23:38;;;;;;;;;;;;;;;;;;5077683;28;20007;-78
2022/02/12 14:26:03;;;;;;;;;;;;;;;;;;5076385;28;20247;-78
2022/02/12 14:28:28;;;;;;;;;;;;;;;;;;5079434;28;19920;-78
2022/02/12 14:30:54;;;;;;;;;;;;;;;;;;5076809;28;19925;-78
2022/02/12 14:33:19;;;;;;;;;;;;;;;;;;5077229;28;20006;-78
2022/02/12 14:35:49;;;;;;;;;;;;;;;;;;5079762;28;20352;-78
2022/02/12 14:38:14;;;;;;;;;;;;;;;;;;5076651;28;19916;-77
2022/02/12 14:40:39;;;;;;;;;;;;;;;;;;5077184;28;20015;-78
2022/02/12 14:43:05;;;;;;;;;;;;;;;;;;5090167;28;19916;-77
2022/02/12 14:45:31;;;;;;;;;;;;;;;;;;5083015;28;19916;-77
2022/02/12 14:47:58;;;;;;;;;;;;;;;;;;5086864;28;19982;-78
2022/02/12 14:50:24;;;;;;;;;;;;;;;;;;5090666;28;20274;-78
2022/02/12 14:52:49;;;;;;;;;;;;;;;;;;5088383;28;20004;-77
2022/02/12 14:55:14;;;;;;;;;;;;;;;;;;5083861;28;19958;-78
2022/02/12 14:57:40;;;;;;;;;;;;;;;;;;5084497;28;19924;-77
2022/02/12 15:00:07;;;;;;;;;;;;;;;;;;5084424;28;19917;-77
2022/02/12 15:02:33;;;;;;;;;;;;;;;;;;5101775;28;19981;-79
2022/02/12 15:04:58;;;;;;;;;;;;;;;;;;5098130;28;20471;-77
2022/02/12 15:07:23;;;;;;;;;;;;;;;;;;5096873;28;19920;-78
2022/02/12 15:09:49;;;;;;;;;;;;;;;;;;5095120;28;19916;-77
2022/02/12 15:12:14;;;;;;;;;;;;;;;;;;5094448;28;19962;-78
2022/02/12 15:14:40;;;;;;;;;;;;;;;;;;5095082;28;20010;-78
2022/02/12 15:17:05;;;;;;;;;;;;;;;;;;5114426;28;19920;-77
2022/02/12 15:19:31;;;;;;;;;;;;;;;;;;5114426;28;20297;-78
2022/02/12 15:21:56;;;;;;;;;;;;;;;;;;5111381;28;20490;-76
2022/02/12 15:24:21;;;;;;;;;;;;;;;;;;5094014;28;20313;-76
2022/02/12 15:26:47;;;;;;;;;;;;;;;;;;5093355;28;19920;-76
2022/02/12 15:29:12;;;;;;;;;;;;;;;;;;5093490;28;19916;-77
2022/02/12 15:31:37;;;;;;;;;;;;;;;;;;5092461;28;19970;-76
2022/02/12 15:34:03;;;;;;;;;;;;;;;;;;5093149;28;19916;-76
2022/02/12 15:36:28;;;;;;;;;;;;;;;;;;5094049;28;19923;-76
2022/02/12 15:38:53;;;;;;;;;;;;;;;;;;5093803;28;20346;-76
2022/02/12 15:41:20;;;;;;;;;;;;;;;;;;5082759;28;19917;-75
2022/02/12 15:43:46;;;;;;;;;;;;;;;;;;5082923;28;20007;-75
2022/02/12 15:46:12;;;;;;;;;;;;;;;;;;5084143;28;20340;-77
2022/02/12 15:48:37;;;;;;;;;;;;;;;;;;5082016;28;20359;-77
2022/02/12 15:51:02;;;;;;;;;;;;;;;;;;5084796;28;20408;-77
2022/02/12 15:53:28;;;;;;;;;;;;;;;;;;5085030;28;19952;-77
2022/02/12 15:55:54;;;;;;;;;;;;;;;;;;5082086;28;19923;-77
2022/02/12 15:58:19;;;;;;;;;;;;;;;;;;5083696;28;19916;-76
2022/02/12 16:00:45;;;;;;;;;;;;;;;;;;5082822;28;19916;-77
2022/02/12 16:03:10;;;;;;;;;;;;;;;;;;5072685;28;19961;-77
2022/02/12 16:05:36;;;;;;;;;;;;;;;;;;5086930;28;19916;-77
2022/02/12 16:08:01;;;;;;;;;;;;;;;;;;5086463;28;19920;-77
2022/02/12 16:10:31;;;;;;;;;;;;;;;;;;5094112;28;19974;-77
2022/02/12 16:12:58;;;;;;;;;;;;;;;;;;5098058;28;19916;-77
2022/02/12 16:15:24;;;;;;;;;;;;;;;;;;5097373;28;19916;-77
2022/02/12 16:17:50;;;;;;;;;;;;;;;;;;5096677;28;20036;-77
2022/02/12 16:20:15;;;;;;;;;;;;;;;;;;5097265;28;19979;-77
2022/02/12 16:22:41;;;;;;;;;;;;;;;;;;5097432;28;19922;-76
2022/02/12 16:25:06;;;;;;;;;;;;;;;;;;5095234;28;19912;-77
2022/02/12 16:27:32;;;;;;;;;;;;;;;;;;5094408;28;20470;-78
2022/02/12 16:29:58;;;;;;;;;;;;;;;;;;5093673;28;19920;-77
2022/02/12 16:32:24;;;;;;;;;;;;;;;;;;5095105;28;20357;-77
2022/02/12 16:34:49;;;;;;;;;;;;;;;;;;5094889;28;19916;-78
2022/02/12 16:37:15;;;;;;;;;;;;;;;;;;5095040;28;19916;-77
2022/02/12 16:39:40;;;;;;;;;;;;;;;;;;5096173;28;19924;-79
2022/02/12 16:42:06;;;;;;;;;;;;;;;;;;5097184;28;19916;-78
2022/02/12 16:44:33;;;;;;;;;;;;;;;;;;5096935;28;19923;-78
2022/02/12 16:46:59;;;;;;;;;;;;;;;;;;5110518;28;19916;-77
2022/02/12 16:49:24;;;;;;;;;;;;;;;;;;5116833;28;19923;-78
2022/02/12 16:51:50;;;;;;;;;;;;;;;;;;5116991;28;20361;-77